Emporia, KS

12:44 AM CDT on March 29, 2017 (GMT -0500)
Timmerman School Area | | Change Station

Elev 1214 ft 38.43 °N, 96.22 °W | Updated 13 seconds ago

Rain
Rain
51.4 °F
Feels Like 51.4 °F
N
25.5
Wind Variable Wind from North
Gusts 30.0 mph

Today
High -- | Low -- °F
--% Chance of Precip.
Yesterday
High -- | Low -- °F
Precip. -- in
Pressure 29.82 in
Visibility 3.0 miles
Clouds Overcast 600 ft
Dew Point 51 °F
Humidity 99%
Rainfall 0.25 in
Snow Depth Not available.
7:13 AM 7:45 PM
New Moon, 2% visible
SPECI KEMP 290527Z AUTO 04020G26KT 3SM RA BR OVC006 11/11 A2982 RMK AO2 PK WND 03026/0520 CIG 004V012 PRESFR P0018 T01060106 TSNO
Pressure 29.82 in
Visibility 3.0 miles
Clouds Overcast 600 ft
Dew Point 51 °F
Humidity 99%
Rainfall 0.25 in
Snow Depth Not available.
7:13 AM 7:45 PM
New Moon, 2% visible
SPECI KEMP 290527Z AUTO 04020G26KT 3SM RA BR OVC006 11/11 A2982 RMK AO2 PK WND 03026/0520 CIG 004V012 PRESFR P0018 T01060106 TSNO

Get Severe Weather Alerts

Thanks for signing up!

Be on the lookout for a verification email in your inbox.

You'll start receiving the daily forecast at 8 AM.

×

10-Day Weather Forecast

Almanac

Astronomy

Mar. 29, 2017 Rise Set
Actual Time
Civil Twilight
Nautical Twilight
Astronomical Twilight
Moon
Length of Visible Light
Length of Day
Tomorrow will be .
, % of the Moon is Illuminated

Today's Extremes

State Highs State Lows

Community

WunderPhotos

Upload Photos

1,962,540 photos uploaded!

WunderBlog® & News

Nearby

Air Quality

  Air Quality AQ Index Pollutant
Not available.

Snow Depth

Station Depth Elevation

Earthquake Activity

City Distance Mag. Time & Date
Minimum magnitude displayed is 2.5.

Earthquake Activity

City Distance Mag. Time & Date
Minimum magnitude displayed is 2.5.

Coastal Water Temperatures

Place Temperature

Stations

Nearby Weather Stations

Station Location Temp. Windchill Dew Point Humidity Wind Precip. Elev Updated Type
                   

Watches & Warnings

There are currently no watches in effect.